sensor_id;sensor_type;location;lat;lon;timestamp;P1;durP1;ratioP1;P2;durP2;ratioP2
10100;SDS011;5090;51.258;4.436;2022-11-25T00:00:19;20.07;;;3.67;;
10100;SDS011;5090;51.258;4.436;2022-11-25T00:02:47;18.83;;;3.73;;
10100;SDS011;5090;51.258;4.436;2022-11-25T00:05:15;10.53;;;3.47;;
10100;SDS011;5090;51.258;4.436;2022-11-25T00:07:43;15.57;;;3.80;;
10100;SDS011;5090;51.258;4.436;2022-11-25T00:10:12;14.77;;;3.33;;
10100;SDS011;5090;51.258;4.436;2022-11-25T00:12:40;14.17;;;3.27;;
10100;SDS011;5090;51.258;4.436;2022-11-25T00:15:08;15.03;;;3.50;;
10100;SDS011;5090;51.258;4.436;2022-11-25T00:17:36;24.50;;;3.90;;
10100;SDS011;5090;51.258;4.436;2022-11-25T00:20:05;14.57;;;2.80;;
10100;SDS011;5090;51.258;4.436;2022-11-25T00:22:33;11.10;;;3.20;;
10100;SDS011;5090;51.258;4.436;2022-11-25T00:25:01;14.07;;;3.30;;
10100;SDS011;5090;51.258;4.436;2022-11-25T00:27:30;13.30;;;2.83;;
10100;SDS011;5090;51.258;4.436;2022-11-25T00:29:58;17.93;;;2.80;;
10100;SDS011;5090;51.258;4.436;2022-11-25T00:32:26;16.07;;;3.33;;
10100;SDS011;5090;51.258;4.436;2022-11-25T00:34:54;17.53;;;2.87;;
10100;SDS011;5090;51.258;4.436;2022-11-25T00:37:23;12.43;;;2.23;;
10100;SDS011;5090;51.258;4.436;2022-11-25T00:39:51;13.10;;;2.93;;
10100;SDS011;5090;51.258;4.436;2022-11-25T00:42:19;14.27;;;2.83;;
10100;SDS011;5090;51.258;4.436;2022-11-25T00:44:53;9.47;;;2.67;;
10100;SDS011;5090;51.258;4.436;2022-11-25T00:47:21;10.67;;;3.10;;
10100;SDS011;5090;51.258;4.436;2022-11-25T00:49:51;16.70;;;2.70;;
10100;SDS011;5090;51.258;4.436;2022-11-25T00:52:19;8.47;;;2.07;;
10100;SDS011;5090;51.258;4.436;2022-11-25T00:54:46;15.40;;;2.40;;
10100;SDS011;5090;51.258;4.436;2022-11-25T00:57:14;9.33;;;2.37;;
10100;SDS011;5090;51.258;4.436;2022-11-25T00:59:42;6.53;;;2.10;;
10100;SDS011;5090;51.258;4.436;2022-11-25T01:02:11;6.73;;;2.27;;
10100;SDS011;5090;51.258;4.436;2022-11-25T01:04:39;8.37;;;2.20;;
10100;SDS011;5090;51.258;4.436;2022-11-25T01:07:07;8.27;;;1.77;;
10100;SDS011;5090;51.258;4.436;2022-11-25T01:09:35;6.70;;;1.73;;
10100;SDS011;5090;51.258;4.436;2022-11-25T01:12:03;7.33;;;1.57;;
10100;SDS011;5090;51.258;4.436;2022-11-25T01:14:32;7.80;;;1.60;;
10100;SDS011;5090;51.258;4.436;2022-11-25T01:17:00;11.10;;;1.67;;
10100;SDS011;5090;51.258;4.436;2022-11-25T01:19:28;8.10;;;1.50;;
10100;SDS011;5090;51.258;4.436;2022-11-25T01:21:56;6.80;;;1.27;;
10100;SDS011;5090;51.258;4.436;2022-11-25T01:24:25;7.83;;;1.80;;
10100;SDS011;5090;51.258;4.436;2022-11-25T01:26:54;9.33;;;1.67;;
10100;SDS011;5090;51.258;4.436;2022-11-25T01:29:22;5.17;;;1.37;;
10100;SDS011;5090;51.258;4.436;2022-11-25T01:31:50;11.57;;;2.13;;
10100;SDS011;5090;51.258;4.436;2022-11-25T01:34:19;7.87;;;1.60;;
10100;SDS011;5090;51.258;4.436;2022-11-25T01:36:47;6.83;;;1.70;;
10100;SDS011;5090;51.258;4.436;2022-11-25T01:39:18;7.23;;;1.43;;
10100;SDS011;5090;51.258;4.436;2022-11-25T01:41:46;3.00;;;1.10;;
10100;SDS011;5090;51.258;4.436;2022-11-25T01:44:16;5.57;;;1.33;;
10100;SDS011;5090;51.258;4.436;2022-11-25T01:46:46;3.60;;;1.10;;
10100;SDS011;5090;51.258;4.436;2022-11-25T01:49:45;7.80;;;1.37;;
10100;SDS011;5090;51.258;4.436;2022-11-25T01:52:19;3.43;;;0.80;;
10100;SDS011;5090;51.258;4.436;2022-11-25T01:54:48;2.50;;;1.10;;
10100;SDS011;5090;51.258;4.436;2022-11-25T01:57:19;3.43;;;0.80;;
10100;SDS011;5090;51.258;4.436;2022-11-25T01:59:45;3.17;;;0.77;;
10100;SDS011;5090;51.258;4.436;2022-11-25T02:02:14;3.67;;;0.83;;
10100;SDS011;5090;51.258;4.436;2022-11-25T02:04:42;2.77;;;0.80;;
10100;SDS011;5090;51.258;4.436;2022-11-25T02:07:14;4.40;;;1.00;;
10100;SDS011;5090;51.258;4.436;2022-11-25T02:09:41;2.43;;;0.70;;
10100;SDS011;5090;51.258;4.436;2022-11-25T02:12:09;3.90;;;0.60;;
10100;SDS011;5090;51.258;4.436;2022-11-25T02:14:38;2.53;;;0.67;;
10100;SDS011;5090;51.258;4.436;2022-11-25T02:17:06;2.47;;;0.70;;
10100;SDS011;5090;51.258;4.436;2022-11-25T02:19:39;2.67;;;0.93;;
10100;SDS011;5090;51.258;4.436;2022-11-25T02:22:03;1.30;;;0.50;;
10100;SDS011;5090;51.258;4.436;2022-11-25T02:24:33;3.67;;;1.13;;
10100;SDS011;5090;51.258;4.436;2022-11-25T02:27:00;2.90;;;0.70;;
10100;SDS011;5090;51.258;4.436;2022-11-25T02:29:28;3.37;;;0.67;;
10100;SDS011;5090;51.258;4.436;2022-11-25T02:31:56;5.27;;;0.90;;
10100;SDS011;5090;51.258;4.436;2022-11-25T02:34:25;4.83;;;1.00;;
10100;SDS011;5090;51.258;4.436;2022-11-25T02:36:53;2.40;;;0.80;;
10100;SDS011;5090;51.258;4.436;2022-11-25T02:39:21;2.30;;;0.70;;
10100;SDS011;5090;51.258;4.436;2022-11-25T02:41:53;1.93;;;0.60;;
10100;SDS011;5090;51.258;4.436;2022-11-25T02:44:20;1.93;;;1.00;;
10100;SDS011;5090;51.258;4.436;2022-11-25T02:46:48;4.90;;;0.80;;
10100;SDS011;5090;51.258;4.436;2022-11-25T02:49:17;2.50;;;0.70;;
10100;SDS011;5090;51.258;4.436;2022-11-25T02:51:45;2.60;;;1.03;;
10100;SDS011;5090;51.258;4.436;2022-11-25T02:54:13;5.17;;;1.07;;
10100;SDS011;5090;51.258;4.436;2022-11-25T02:56:41;2.33;;;0.77;;
10100;SDS011;5090;51.258;4.436;2022-11-25T03:02:06;4.53;;;0.87;;
10100;SDS011;5090;51.258;4.436;2022-11-25T03:04:34;3.40;;;0.90;;
10100;SDS011;5090;51.258;4.436;2022-11-25T03:09:52;3.63;;;1.00;;
10100;SDS011;5090;51.258;4.436;2022-11-25T03:12:21;0.67;;;0.60;;
10100;SDS011;5090;51.258;4.436;2022-11-25T03:14:49;1.27;;;0.60;;
10100;SDS011;5090;51.258;4.436;2022-11-25T03:17:17;3.30;;;0.90;;
10100;SDS011;5090;51.258;4.436;2022-11-25T03:19:45;3.30;;;0.67;;
10100;SDS011;5090;51.258;4.436;2022-11-25T03:22:14;3.17;;;1.00;;
10100;SDS011;5090;51.258;4.436;2022-11-25T03:24:46;2.70;;;0.70;;
10100;SDS011;5090;51.258;4.436;2022-11-25T03:27:14;3.50;;;1.03;;
10100;SDS011;5090;51.258;4.436;2022-11-25T03:29:42;2.27;;;0.83;;
10100;SDS011;5090;51.258;4.436;2022-11-25T03:32:10;4.00;;;0.97;;
10100;SDS011;5090;51.258;4.436;2022-11-25T03:34:38;4.70;;;1.10;;
10100;SDS011;5090;51.258;4.436;2022-11-25T03:37:07;4.53;;;1.20;;
10100;SDS011;5090;51.258;4.436;2022-11-25T03:39:35;3.63;;;1.53;;
10100;SDS011;5090;51.258;4.436;2022-11-25T03:42:03;3.37;;;1.10;;
10100;SDS011;5090;51.258;4.436;2022-11-25T03:44:31;1.93;;;1.30;;
10100;SDS011;5090;51.258;4.436;2022-11-25T03:46:59;3.10;;;1.23;;
10100;SDS011;5090;51.258;4.436;2022-11-25T03:49:28;4.43;;;1.13;;
10100;SDS011;5090;51.258;4.436;2022-11-25T03:51:56;4.23;;;1.00;;
10100;SDS011;5090;51.258;4.436;2022-11-25T03:54:24;4.77;;;1.43;;
10100;SDS011;5090;51.258;4.436;2022-11-25T03:56:52;6.37;;;1.60;;
10100;SDS011;5090;51.258;4.436;2022-11-25T03:59:20;2.43;;;1.10;;
10100;SDS011;5090;51.258;4.436;2022-11-25T04:01:49;6.10;;;1.73;;
10100;SDS011;5090;51.258;4.436;2022-11-25T04:04:17;5.47;;;1.20;;
10100;SDS011;5090;51.258;4.436;2022-11-25T04:06:45;4.17;;;1.70;;
10100;SDS011;5090;51.258;4.436;2022-11-25T04:09:13;3.73;;;1.50;;
10100;SDS011;5090;51.258;4.436;2022-11-25T04:11:42;5.03;;;1.70;;
10100;SDS011;5090;51.258;4.436;2022-11-25T04:14:16;6.10;;;1.70;;
10100;SDS011;5090;51.258;4.436;2022-11-25T04:16:44;9.33;;;1.70;;
10100;SDS011;5090;51.258;4.436;2022-11-25T04:19:12;9.90;;;2.37;;
10100;SDS011;5090;51.258;4.436;2022-11-25T04:21:40;8.40;;;1.97;;
10100;SDS011;5090;51.258;4.436;2022-11-25T04:24:08;7.60;;;1.90;;
10100;SDS011;5090;51.258;4.436;2022-11-25T04:26:36;4.23;;;1.33;;
10100;SDS011;5090;51.258;4.436;2022-11-25T04:29:05;7.83;;;1.90;;
10100;SDS011;5090;51.258;4.436;2022-11-25T04:31:33;8.93;;;1.90;;
10100;SDS011;5090;51.258;4.436;2022-11-25T04:34:01;6.97;;;1.33;;
10100;SDS011;5090;51.258;4.436;2022-11-25T04:36:29;6.03;;;1.67;;
10100;SDS011;5090;51.258;4.436;2022-11-25T04:38:57;7.83;;;1.87;;
10100;SDS011;5090;51.258;4.436;2022-11-25T04:41:26;6.20;;;2.17;;
10100;SDS011;5090;51.258;4.436;2022-11-25T04:43:54;5.57;;;1.70;;
10100;SDS011;5090;51.258;4.436;2022-11-25T04:46:23;9.20;;;1.90;;
10100;SDS011;5090;51.258;4.436;2022-11-25T04:48:50;8.63;;;1.87;;
10100;SDS011;5090;51.258;4.436;2022-11-25T04:51:18;7.10;;;1.80;;
10100;SDS011;5090;51.258;4.436;2022-11-25T04:53:47;5.53;;;1.73;;
10100;SDS011;5090;51.258;4.436;2022-11-25T04:56:16;10.13;;;2.20;;
10100;SDS011;5090;51.258;4.436;2022-11-25T04:58:43;10.23;;;2.10;;
10100;SDS011;5090;51.258;4.436;2022-11-25T05:01:17;5.83;;;2.13;;
10100;SDS011;5090;51.258;4.436;2022-11-25T05:03:47;8.20;;;2.73;;
10100;SDS011;5090;51.258;4.436;2022-11-25T05:06:14;9.20;;;2.00;;
10100;SDS011;5090;51.258;4.436;2022-11-25T05:08:42;10.67;;;2.17;;
10100;SDS011;5090;51.258;4.436;2022-11-25T05:11:10;5.80;;;1.77;;
10100;SDS011;5090;51.258;4.436;2022-11-25T05:13:38;8.20;;;1.93;;
10100;SDS011;5090;51.258;4.436;2022-11-25T05:16:06;8.70;;;2.20;;
10100;SDS011;5090;51.258;4.436;2022-11-25T05:18:35;9.17;;;2.90;;
10100;SDS011;5090;51.258;4.436;2022-11-25T05:21:03;8.80;;;2.33;;
10100;SDS011;5090;51.258;4.436;2022-11-25T05:23:31;12.53;;;2.43;;
10100;SDS011;5090;51.258;4.436;2022-11-25T05:26:00;10.17;;;2.07;;
10100;SDS011;5090;51.258;4.436;2022-11-25T05:28:28;6.67;;;1.70;;
10100;SDS011;5090;51.258;4.436;2022-11-25T05:30:56;7.10;;;1.73;;
10100;SDS011;5090;51.258;4.436;2022-11-25T05:33:24;7.47;;;2.73;;
10100;SDS011;5090;51.258;4.436;2022-11-25T05:35:53;7.23;;;2.17;;
10100;SDS011;5090;51.258;4.436;2022-11-25T05:38:20;12.47;;;2.70;;
10100;SDS011;5090;51.258;4.436;2022-11-25T05:40:49;9.63;;;2.00;;
10100;SDS011;5090;51.258;4.436;2022-11-25T05:43:17;9.40;;;2.17;;
10100;SDS011;5090;51.258;4.436;2022-11-25T05:45:45;8.30;;;2.27;;
10100;SDS011;5090;51.258;4.436;2022-11-25T05:48:13;8.40;;;1.83;;
10100;SDS011;5090;51.258;4.436;2022-11-25T05:50:41;11.10;;;2.30;;
10100;SDS011;5090;51.258;4.436;2022-11-25T05:53:09;9.40;;;2.73;;
10100;SDS011;5090;51.258;4.436;2022-11-25T05:55:38;10.10;;;2.20;;
10100;SDS011;5090;51.258;4.436;2022-11-25T05:58:06;8.57;;;2.70;;
10100;SDS011;5090;51.258;4.436;2022-11-25T06:00:34;6.60;;;1.97;;
10100;SDS011;5090;51.258;4.436;2022-11-25T06:03:02;7.87;;;2.03;;
10100;SDS011;5090;51.258;4.436;2022-11-25T06:05:32;6.57;;;2.00;;
10100;SDS011;5090;51.258;4.436;2022-11-25T06:07:59;8.63;;;1.90;;
10100;SDS011;5090;51.258;4.436;2022-11-25T06:10:27;4.97;;;1.80;;
10100;SDS011;5090;51.258;4.436;2022-11-25T06:12:55;5.73;;;2.13;;
10100;SDS011;5090;51.258;4.436;2022-11-25T06:15:23;10.77;;;2.40;;
10100;SDS011;5090;51.258;4.436;2022-11-25T06:17:51;8.63;;;2.13;;
10100;SDS011;5090;51.258;4.436;2022-11-25T06:20:20;5.33;;;2.20;;
10100;SDS011;5090;51.258;4.436;2022-11-25T06:22:48;6.80;;;2.03;;
10100;SDS011;5090;51.258;4.436;2022-11-25T06:25:16;5.80;;;2.00;;
10100;SDS011;5090;51.258;4.436;2022-11-25T06:27:44;9.57;;;2.20;;
10100;SDS011;5090;51.258;4.436;2022-11-25T06:30:13;6.87;;;1.73;;
10100;SDS011;5090;51.258;4.436;2022-11-25T06:32:41;6.47;;;2.10;;
10100;SDS011;5090;51.258;4.436;2022-11-25T06:35:09;8.53;;;1.90;;
10100;SDS011;5090;51.258;4.436;2022-11-25T06:37:38;5.63;;;1.70;;
10100;SDS011;5090;51.258;4.436;2022-11-25T06:40:06;10.17;;;1.93;;
10100;SDS011;5090;51.258;4.436;2022-11-25T06:42:34;6.13;;;1.70;;
10100;SDS011;5090;51.258;4.436;2022-11-25T06:45:03;9.90;;;2.17;;
10100;SDS011;5090;51.258;4.436;2022-11-25T06:47:31;7.40;;;1.77;;
10100;SDS011;5090;51.258;4.436;2022-11-25T06:49:59;9.70;;;1.93;;
10100;SDS011;5090;51.258;4.436;2022-11-25T06:52:29;7.17;;;2.07;;
10100;SDS011;5090;51.258;4.436;2022-11-25T06:54:55;8.10;;;1.60;;
10100;SDS011;5090;51.258;4.436;2022-11-25T06:57:24;9.20;;;2.40;;
10100;SDS011;5090;51.258;4.436;2022-11-25T06:59:52;6.63;;;1.83;;
10100;SDS011;5090;51.258;4.436;2022-11-25T07:02:20;7.87;;;1.73;;
10100;SDS011;5090;51.258;4.436;2022-11-25T07:04:48;8.33;;;2.37;;
10100;SDS011;5090;51.258;4.436;2022-11-25T07:07:17;9.97;;;2.73;;
10100;SDS011;5090;51.258;4.436;2022-11-25T07:09:45;5.40;;;2.10;;
10100;SDS011;5090;51.258;4.436;2022-11-25T07:12:13;11.83;;;2.90;;
10100;SDS011;5090;51.258;4.436;2022-11-25T07:14:41;12.30;;;3.13;;
10100;SDS011;5090;51.258;4.436;2022-11-25T07:17:10;15.17;;;3.40;;
10100;SDS011;5090;51.258;4.436;2022-11-25T07:19:38;9.67;;;2.70;;
10100;SDS011;5090;51.258;4.436;2022-11-25T07:22:06;15.23;;;3.00;;
10100;SDS011;5090;51.258;4.436;2022-11-25T07:24:34;9.97;;;2.67;;
10100;SDS011;5090;51.258;4.436;2022-11-25T07:27:03;8.03;;;2.87;;
10100;SDS011;5090;51.258;4.436;2022-11-25T07:29:31;11.27;;;3.90;;
10100;SDS011;5090;51.258;4.436;2022-11-25T07:32:01;11.07;;;2.80;;
10100;SDS011;5090;51.258;4.436;2022-11-25T07:34:29;8.60;;;2.93;;
10100;SDS011;5090;51.258;4.436;2022-11-25T07:36:57;9.27;;;2.90;;
10100;SDS011;5090;51.258;4.436;2022-11-25T07:39:25;8.47;;;2.70;;
10100;SDS011;5090;51.258;4.436;2022-11-25T07:41:53;8.37;;;2.83;;
10100;SDS011;5090;51.258;4.436;2022-11-25T07:44:22;7.53;;;2.73;;
10100;SDS011;5090;51.258;4.436;2022-11-25T07:46:50;12.93;;;2.60;;
10100;SDS011;5090;51.258;4.436;2022-11-25T07:49:19;12.23;;;2.63;;
10100;SDS011;5090;51.258;4.436;2022-11-25T07:51:48;10.13;;;3.07;;
10100;SDS011;5090;51.258;4.436;2022-11-25T07:54:15;10.83;;;2.80;;
10100;SDS011;5090;51.258;4.436;2022-11-25T07:56:43;9.77;;;3.20;;
10100;SDS011;5090;51.258;4.436;2022-11-25T07:59:13;10.57;;;2.57;;
10100;SDS011;5090;51.258;4.436;2022-11-25T08:01:41;8.43;;;3.03;;
10100;SDS011;5090;51.258;4.436;2022-11-25T08:04:09;11.70;;;2.93;;
10100;SDS011;5090;51.258;4.436;2022-11-25T08:06:38;12.97;;;3.23;;
10100;SDS011;5090;51.258;4.436;2022-11-25T08:09:06;13.87;;;3.33;;
10100;SDS011;5090;51.258;4.436;2022-11-25T08:11:34;10.20;;;2.80;;
10100;SDS011;5090;51.258;4.436;2022-11-25T08:14:02;13.03;;;3.10;;
10100;SDS011;5090;51.258;4.436;2022-11-25T08:16:31;7.83;;;2.87;;
10100;SDS011;5090;51.258;4.436;2022-11-25T08:18:59;9.27;;;3.27;;
10100;SDS011;5090;51.258;4.436;2022-11-25T08:21:27;11.87;;;2.97;;
10100;SDS011;5090;51.258;4.436;2022-11-25T08:23:55;13.60;;;3.63;;
10100;SDS011;5090;51.258;4.436;2022-11-25T08:26:24;10.77;;;3.03;;
10100;SDS011;5090;51.258;4.436;2022-11-25T08:28:52;10.77;;;3.50;;
10100;SDS011;5090;51.258;4.436;2022-11-25T08:31:23;16.53;;;3.20;;
10100;SDS011;5090;51.258;4.436;2022-11-25T08:33:50;17.20;;;3.83;;
10100;SDS011;5090;51.258;4.436;2022-11-25T08:36:19;11.20;;;3.60;;
10100;SDS011;5090;51.258;4.436;2022-11-25T08:38:47;9.87;;;3.50;;
10100;SDS011;5090;51.258;4.436;2022-11-25T08:41:17;12.43;;;3.40;;
10100;SDS011;5090;51.258;4.436;2022-11-25T08:43:43;8.93;;;3.17;;
10100;SDS011;5090;51.258;4.436;2022-11-25T08:46:14;16.00;;;3.73;;
10100;SDS011;5090;51.258;4.436;2022-11-25T08:48:39;9.03;;;3.60;;
10100;SDS011;5090;51.258;4.436;2022-11-25T08:51:09;16.87;;;4.20;;
10100;SDS011;5090;51.258;4.436;2022-11-25T08:53:36;14.83;;;4.13;;
10100;SDS011;5090;51.258;4.436;2022-11-25T08:56:04;17.93;;;3.43;;
10100;SDS011;5090;51.258;4.436;2022-11-25T08:58:33;13.23;;;3.60;;
10100;SDS011;5090;51.258;4.436;2022-11-25T09:01:01;7.93;;;3.10;;
10100;SDS011;5090;51.258;4.436;2022-11-25T09:03:31;7.50;;;2.87;;
10100;SDS011;5090;51.258;4.436;2022-11-25T09:05:59;9.37;;;3.23;;
10100;SDS011;5090;51.258;4.436;2022-11-25T09:08:27;8.13;;;2.57;;
10100;SDS011;5090;51.258;4.436;2022-11-25T09:10:56;14.77;;;2.90;;
10100;SDS011;5090;51.258;4.436;2022-11-25T09:13:23;13.43;;;2.97;;
10100;SDS011;5090;51.258;4.436;2022-11-25T09:15:52;14.50;;;3.40;;
10100;SDS011;5090;51.258;4.436;2022-11-25T09:18:20;7.87;;;2.60;;
10100;SDS011;5090;51.258;4.436;2022-11-25T09:20:48;12.37;;;2.90;;
10100;SDS011;5090;51.258;4.436;2022-11-25T09:23:16;10.33;;;3.07;;
10100;SDS011;5090;51.258;4.436;2022-11-25T09:26:00;7.90;;;2.67;;
10100;SDS011;5090;51.258;4.436;2022-11-25T09:28:27;9.27;;;2.90;;
10100;SDS011;5090;51.258;4.436;2022-11-25T09:30:56;9.57;;;3.77;;
10100;SDS011;5090;51.258;4.436;2022-11-25T09:33:24;10.83;;;2.70;;
10100;SDS011;5090;51.258;4.436;2022-11-25T09:35:52;12.37;;;2.70;;
10100;SDS011;5090;51.258;4.436;2022-11-25T09:38:20;10.17;;;2.93;;
10100;SDS011;5090;51.258;4.436;2022-11-25T09:40:59;10.00;;;2.93;;
10100;SDS011;5090;51.258;4.436;2022-11-25T09:43:33;7.13;;;3.20;;
10100;SDS011;5090;51.258;4.436;2022-11-25T09:46:09;13.63;;;3.07;;
10100;SDS011;5090;51.258;4.436;2022-11-25T09:48:46;6.57;;;2.30;;
10100;SDS011;5090;51.258;4.436;2022-11-25T09:51:14;10.17;;;2.87;;
10100;SDS011;5090;51.258;4.436;2022-11-25T09:53:42;7.77;;;2.87;;
10100;SDS011;5090;51.258;4.436;2022-11-25T09:56:42;7.80;;;2.83;;
10100;SDS011;5090;51.258;4.436;2022-11-25T09:58:58;10.73;;;2.90;;
10100;SDS011;5090;51.258;4.436;2022-11-25T10:01:24;6.20;;;2.37;;
10100;SDS011;5090;51.258;4.436;2022-11-25T10:03:52;7.20;;;2.87;;
10100;SDS011;5090;51.258;4.436;2022-11-25T10:06:22;6.07;;;2.40;;
10100;SDS011;5090;51.258;4.436;2022-11-25T10:08:50;8.70;;;2.23;;
10100;SDS011;5090;51.258;4.436;2022-11-25T10:11:29;8.43;;;2.67;;
10100;SDS011;5090;51.258;4.436;2022-11-25T10:14:01;8.30;;;2.57;;
10100;SDS011;5090;51.258;4.436;2022-11-25T10:16:32;8.27;;;2.70;;
10100;SDS011;5090;51.258;4.436;2022-11-25T10:19:04;4.73;;;2.23;;
10100;SDS011;5090;51.258;4.436;2022-11-25T10:21:29;6.67;;;2.40;;
10100;SDS011;5090;51.258;4.436;2022-11-25T10:23:57;11.40;;;2.30;;
10100;SDS011;5090;51.258;4.436;2022-11-25T10:26:28;10.30;;;2.97;;
10100;SDS011;5090;51.258;4.436;2022-11-25T10:28:54;6.77;;;2.00;;
10100;SDS011;5090;51.258;4.436;2022-11-25T10:31:28;5.67;;;2.53;;
10100;SDS011;5090;51.258;4.436;2022-11-25T10:33:55;5.77;;;1.60;;
10100;SDS011;5090;51.258;4.436;2022-11-25T10:36:28;10.00;;;1.83;;
10100;SDS011;5090;51.258;4.436;2022-11-25T10:38:56;5.57;;;1.53;;
10100;SDS011;5090;51.258;4.436;2022-11-25T10:41:25;9.70;;;1.80;;
10100;SDS011;5090;51.258;4.436;2022-11-25T10:43:52;5.87;;;1.67;;
10100;SDS011;5090;51.258;4.436;2022-11-25T10:46:28;9.77;;;2.40;;
10100;SDS011;5090;51.258;4.436;2022-11-25T10:48:59;6.97;;;1.93;;
10100;SDS011;5090;51.258;4.436;2022-11-25T10:54:13;5.73;;;1.67;;
10100;SDS011;5090;51.258;4.436;2022-11-25T10:56:43;6.27;;;1.77;;
10100;SDS011;5090;51.258;4.436;2022-11-25T10:59:13;6.43;;;1.67;;
10100;SDS011;5090;51.258;4.436;2022-11-25T11:01:40;7.77;;;2.00;;
10100;SDS011;5090;51.258;4.436;2022-11-25T11:04:10;6.67;;;1.60;;
10100;SDS011;5090;51.258;4.436;2022-11-25T11:06:39;5.27;;;1.70;;
10100;SDS011;5090;51.258;4.436;2022-11-25T11:09:08;7.37;;;2.17;;
10100;SDS011;5090;51.258;4.436;2022-11-25T11:11:33;7.17;;;1.83;;
10100;SDS011;5090;51.258;4.436;2022-11-25T11:14:12;6.63;;;1.33;;
10100;SDS011;5090;51.258;4.436;2022-11-25T11:16:41;9.40;;;2.40;;
10100;SDS011;5090;51.258;4.436;2022-11-25T11:19:19;11.00;;;1.90;;
10100;SDS011;5090;51.258;4.436;2022-11-25T11:21:40;10.40;;;2.30;;
10100;SDS011;5090;51.258;4.436;2022-11-25T11:26:43;9.50;;;2.10;;
10100;SDS011;5090;51.258;4.436;2022-11-25T11:29:13;9.83;;;1.87;;
10100;SDS011;5090;51.258;4.436;2022-11-25T11:31:44;6.43;;;1.70;;
10100;SDS011;5090;51.258;4.436;2022-11-25T11:36:50;9.63;;;2.40;;
10100;SDS011;5090;51.258;4.436;2022-11-25T11:39:22;9.90;;;2.33;;
10100;SDS011;5090;51.258;4.436;2022-11-25T11:44:50;9.70;;;2.23;;
10100;SDS011;5090;51.258;4.436;2022-11-25T11:47:22;14.10;;;2.63;;
10100;SDS011;5090;51.258;4.436;2022-11-25T11:49:53;7.53;;;2.00;;
10100;SDS011;5090;51.258;4.436;2022-11-25T11:52:54;9.33;;;2.10;;
10100;SDS011;5090;51.258;4.436;2022-11-25T11:57:50;11.17;;;2.67;;
10100;SDS011;5090;51.258;4.436;2022-11-25T12:00:16;9.60;;;2.10;;
10100;SDS011;5090;51.258;4.436;2022-11-25T12:02:58;9.13;;;1.90;;
10100;SDS011;5090;51.258;4.436;2022-11-25T12:05:26;12.63;;;2.30;;
10100;SDS011;5090;51.258;4.436;2022-11-25T12:08:29;14.47;;;3.20;;
10100;SDS011;5090;51.258;4.436;2022-11-25T12:10:42;11.80;;;3.13;;
10100;SDS011;5090;51.258;4.436;2022-11-25T12:15:54;9.80;;;2.07;;
10100;SDS011;5090;51.258;4.436;2022-11-25T12:18:28;10.20;;;2.20;;
10100;SDS011;5090;51.258;4.436;2022-11-25T12:20:53;11.90;;;2.30;;
10100;SDS011;5090;51.258;4.436;2022-11-25T12:23:27;10.87;;;2.60;;
10100;SDS011;5090;51.258;4.436;2022-11-25T12:25:53;15.17;;;2.70;;
10100;SDS011;5090;51.258;4.436;2022-11-25T12:28:25;13.30;;;3.70;;
10100;SDS011;5090;51.258;4.436;2022-11-25T12:30:57;13.13;;;2.53;;
10100;SDS011;5090;51.258;4.436;2022-11-25T12:33:25;13.70;;;2.57;;
10100;SDS011;5090;51.258;4.436;2022-11-25T12:35:53;11.33;;;2.50;;
10100;SDS011;5090;51.258;4.436;2022-11-25T12:38:26;15.63;;;2.87;;
10100;SDS011;5090;51.258;4.436;2022-11-25T12:46:02;10.60;;;2.40;;
10100;SDS011;5090;51.258;4.436;2022-11-25T12:48:26;12.57;;;2.90;;
10100;SDS011;5090;51.258;4.436;2022-11-25T12:51:00;16.67;;;3.03;;
10100;SDS011;5090;51.258;4.436;2022-11-25T12:53:27;17.30;;;3.23;;
10100;SDS011;5090;51.258;4.436;2022-11-25T12:55:52;12.07;;;3.10;;
10100;SDS011;5090;51.258;4.436;2022-11-25T12:58:27;15.73;;;2.97;;
10100;SDS011;5090;51.258;4.436;2022-11-25T13:03:39;12.30;;;2.87;;
10100;SDS011;5090;51.258;4.436;2022-11-25T13:09:04;19.63;;;3.70;;
10100;SDS011;5090;51.258;4.436;2022-11-25T13:11:39;16.73;;;4.47;;
10100;SDS011;5090;51.258;4.436;2022-11-25T13:16:36;16.63;;;2.90;;
10100;SDS011;5090;51.258;4.436;2022-11-25T13:19:07;16.03;;;2.77;;
10100;SDS011;5090;51.258;4.436;2022-11-25T13:21:53;15.77;;;3.50;;
10100;SDS011;5090;51.258;4.436;2022-11-25T13:24:08;16.17;;;3.50;;
10100;SDS011;5090;51.258;4.436;2022-11-25T13:26:34;15.70;;;4.50;;
10100;SDS011;5090;51.258;4.436;2022-11-25T13:29:06;9.57;;;3.10;;
10100;SDS011;5090;51.258;4.436;2022-11-25T13:31:33;15.30;;;4.07;;
10100;SDS011;5090;51.258;4.436;2022-11-25T13:34:33;17.23;;;3.90;;
10100;SDS011;5090;51.258;4.436;2022-11-25T13:36:46;11.97;;;3.57;;
10100;SDS011;5090;51.258;4.436;2022-11-25T13:39:15;15.93;;;4.70;;
10100;SDS011;5090;51.258;4.436;2022-11-25T13:41:43;13.97;;;4.20;;
10100;SDS011;5090;51.258;4.436;2022-11-25T13:44:18;18.30;;;3.90;;
10100;SDS011;5090;51.258;4.436;2022-11-25T13:46:48;20.80;;;4.73;;
10100;SDS011;5090;51.258;4.436;2022-11-25T13:49:20;13.07;;;3.90;;
10100;SDS011;5090;51.258;4.436;2022-11-25T14:23:32;24.83;;;5.87;;
10100;SDS011;5090;51.258;4.436;2022-11-25T14:25:56;19.33;;;4.83;;
10100;SDS011;5090;51.258;4.436;2022-11-25T14:28:28;18.60;;;4.00;;
10100;SDS011;5090;51.258;4.436;2022-11-25T14:30:53;16.47;;;3.70;;
10100;SDS011;5090;51.258;4.436;2022-11-25T14:33:23;16.77;;;4.07;;
10100;SDS011;5090;51.258;4.436;2022-11-25T14:35:54;17.57;;;4.03;;
10100;SDS011;5090;51.258;4.436;2022-11-25T14:38:22;20.13;;;3.77;;
10100;SDS011;5090;51.258;4.436;2022-11-25T14:40:56;18.00;;;4.17;;
10100;SDS011;5090;51.258;4.436;2022-11-25T14:43:22;15.67;;;4.40;;
10100;SDS011;5090;51.258;4.436;2022-11-25T14:48:24;15.63;;;4.10;;
10100;SDS011;5090;51.258;4.436;2022-11-25T14:50:54;12.73;;;3.87;;
10100;SDS011;5090;51.258;4.436;2022-11-25T14:53:21;13.40;;;4.50;;
10100;SDS011;5090;51.258;4.436;2022-11-25T14:55:50;13.27;;;3.97;;
10100;SDS011;5090;51.258;4.436;2022-11-25T14:58:19;21.37;;;4.13;;
10100;SDS011;5090;51.258;4.436;2022-11-25T15:00:51;11.60;;;3.67;;
10100;SDS011;5090;51.258;4.436;2022-11-25T15:03:18;17.10;;;4.50;;
10100;SDS011;5090;51.258;4.436;2022-11-25T15:05:55;17.87;;;4.40;;
10100;SDS011;5090;51.258;4.436;2022-11-25T15:08:23;14.27;;;4.03;;
10100;SDS011;5090;51.258;4.436;2022-11-25T15:10:52;15.67;;;3.97;;
10100;SDS011;5090;51.258;4.436;2022-11-25T15:15:54;13.03;;;3.97;;
10100;SDS011;5090;51.258;4.436;2022-11-25T15:18:23;15.57;;;4.30;;
10100;SDS011;5090;51.258;4.436;2022-11-25T15:20:55;14.23;;;3.87;;
10100;SDS011;5090;51.258;4.436;2022-11-25T15:23:26;15.37;;;3.73;;
10100;SDS011;5090;51.258;4.436;2022-11-25T15:25:53;17.13;;;4.13;;
10100;SDS011;5090;51.258;4.436;2022-11-25T15:28:23;17.73;;;3.80;;
10100;SDS011;5090;51.258;4.436;2022-11-25T15:30:58;21.67;;;4.23;;
10100;SDS011;5090;51.258;4.436;2022-11-25T15:33:25;14.03;;;3.67;;
10100;SDS011;5090;51.258;4.436;2022-11-25T15:35:53;18.20;;;4.10;;
10100;SDS011;5090;51.258;4.436;2022-11-25T15:40:55;9.70;;;3.27;;
10100;SDS011;5090;51.258;4.436;2022-11-25T15:43:24;11.03;;;3.17;;
10100;SDS011;5090;51.258;4.436;2022-11-25T15:45:53;16.03;;;3.40;;
10100;SDS011;5090;51.258;4.436;2022-11-25T15:48:26;12.53;;;3.10;;
10100;SDS011;5090;51.258;4.436;2022-11-25T15:50:58;20.80;;;4.50;;
10100;SDS011;5090;51.258;4.436;2022-11-25T15:53:24;21.27;;;4.40;;
10100;SDS011;5090;51.258;4.436;2022-11-25T15:55:53;14.77;;;3.40;;
10100;SDS011;5090;51.258;4.436;2022-11-25T15:58:22;18.90;;;4.03;;
10100;SDS011;5090;51.258;4.436;2022-11-25T16:21:22;21.63;;;3.73;;
10100;SDS011;5090;51.258;4.436;2022-11-25T16:29:31;17.43;;;5.03;;
10100;SDS011;5090;51.258;4.436;2022-11-25T16:34:54;14.20;;;3.80;;
10100;SDS011;5090;51.258;4.436;2022-11-25T16:37:21;14.33;;;3.43;;
10100;SDS011;5090;51.258;4.436;2022-11-25T16:39:49;13.10;;;2.90;;
10100;SDS011;5090;51.258;4.436;2022-11-25T16:45:16;11.27;;;3.90;;
10100;SDS011;5090;51.258;4.436;2022-11-25T16:47:42;16.73;;;3.77;;
10100;SDS011;5090;51.258;4.436;2022-11-25T16:50:11;15.77;;;3.40;;
10100;SDS011;5090;51.258;4.436;2022-11-25T16:52:39;16.70;;;3.90;;